Time;durP1;ratioP1;P1;durP2;ratioP2;P2;SDS_P1;SDS_P2;PMS_P1;PMS_P2;Temp;Humidity;BMP_temperature;BMP_pressure;BME280_temperature;BME280_humidity;BME280_pressure;Samples;Min_cycle;Max_cycle;Signal;HPM_P1;HPM_P2
2021/08/07 00:00:29;;;;;;;;;;;12.90;99.90;;;;;;5031313;28;19949;-77
2021/08/07 00:02:55;;;;;;;;;;;12.90;99.90;;;;;;5031307;28;19909;-76
2021/08/07 00:05:20;;;;;;;;;;;12.90;99.90;;;;;;5031676;28;19967;-77
2021/08/07 00:07:46;;;;;;;;;;;13.00;99.90;;;;;;5031059;28;20309;-77
2021/08/07 00:10:11;;;;;;;;;;;13.00;99.90;;;;;;5031172;28;19909;-77
2021/08/07 00:12:37;;;;;;;;;;;13.00;99.90;;;;;;5030322;28;19909;-77
2021/08/07 00:15:03;;;;;;;;;;;12.90;99.90;;;;;;5031046;28;19917;-77
2021/08/07 00:17:29;;;;;;;;;;;12.90;99.90;;;;;;5032455;28;19964;-77
2021/08/07 00:19:54;;;;;;;;;;;12.90;99.90;;;;;;5034990;28;19909;-77
2021/08/07 00:22:20;;;;;;;;;;;12.80;99.90;;;;;;5035008;28;19909;-77
2021/08/07 00:24:45;;;;;;;;;;;12.80;99.90;;;;;;5035008;28;19909;-77
2021/08/07 00:27:11;;;;;;;;;;;12.80;99.90;;;;;;5035067;28;19913;-77
2021/08/07 00:29:36;;;;;;;;;;;12.80;99.90;;;;;;5035128;28;19955;-77
2021/08/07 00:32:02;;;;;;;;;;;12.80;99.90;;;;;;5035214;28;19924;-77
2021/08/07 00:34:28;;;;;;;;;;;12.80;99.90;;;;;;5035034;28;20297;-77
2021/08/07 00:36:53;;;;;;;;;;;12.80;99.90;;;;;;5034010;28;19913;-77
2021/08/07 00:39:19;;;;;;;;;;;12.90;99.90;;;;;;5031922;28;19909;-77
2021/08/07 00:41:45;;;;;;;;;;;12.80;99.90;;;;;;5033632;28;19916;-77
2021/08/07 00:44:10;;;;;;;;;;;12.80;99.90;;;;;;5034690;28;20374;-77
2021/08/07 00:46:36;;;;;;;;;;;12.80;99.90;;;;;;5033889;28;19917;-77
2021/08/07 00:49:02;;;;;;;;;;;12.80;99.90;;;;;;5034339;28;19928;-77
2021/08/07 00:51:27;;;;;;;;;;;12.70;99.90;;;;;;5034370;28;19917;-77
2021/08/07 00:53:53;;;;;;;;;;;12.80;99.90;;;;;;5034186;28;19913;-77
2021/08/07 00:56:18;;;;;;;;;;;12.80;99.90;;;;;;5035969;28;19917;-79
2021/08/07 00:58:43;;;;;;;;;;;12.80;99.90;;;;;;5037441;28;20381;-77
2021/08/07 01:01:11;;;;;;;;;;;12.80;99.90;;;;;;5034029;28;19940;-77
2021/08/07 01:03:45;;;;;;;;;;;12.80;99.90;;;;;;5034161;28;19972;-77
2021/08/07 01:06:23;;;;;;;;;;;12.90;99.90;;;;;;5015800;28;19970;-77
2021/08/07 01:09:08;;;;;;;;;;;12.90;99.90;;;;;;5034069;28;19955;-77
2021/08/07 01:11:48;;;;;;;;;;;13.00;99.90;;;;;;5003008;28;20003;-77
2021/08/07 01:14:15;;;;;;;;;;;13.00;99.90;;;;;;5033982;28;19971;-77
2021/08/07 01:16:42;;;;;;;;;;;13.10;99.90;;;;;;5032854;28;20436;-77
2021/08/07 01:19:10;;;;;;;;;;;13.10;99.90;;;;;;5033934;28;19949;-77
2021/08/07 01:21:37;;;;;;;;;;;13.10;99.90;;;;;;5033599;28;19962;-77
2021/08/07 01:24:04;;;;;;;;;;;13.10;99.90;;;;;;5034084;28;20350;-77
2021/08/07 01:26:48;;;;;;;;;;;13.20;99.90;;;;;;5033479;28;19920;-77
2021/08/07 01:29:15;;;;;;;;;;;13.20;99.90;;;;;;5033569;28;19913;-77
2021/08/07 01:31:44;;;;;;;;;;;13.30;99.90;;;;;;5015689;28;19921;-77
2021/08/07 01:34:10;;;;;;;;;;;13.30;99.90;;;;;;5015796;28;19909;-77
2021/08/07 01:36:35;;;;;;;;;;;13.30;99.90;;;;;;5015142;28;19913;-77
2021/08/07 01:39:01;;;;;;;;;;;13.30;99.90;;;;;;5015685;28;19909;-77
2021/08/07 01:41:26;;;;;;;;;;;13.30;99.90;;;;;;5033461;28;20322;-77
2021/08/07 01:43:52;;;;;;;;;;;13.30;99.90;;;;;;5033441;28;19909;-77
2021/08/07 01:46:19;;;;;;;;;;;13.30;99.90;;;;;;5014776;28;19913;-77
2021/08/07 01:49:03;;;;;;;;;;;13.30;99.90;;;;;;5015238;28;19939;-77
2021/08/07 01:51:39;;;;;;;;;;;13.30;99.90;;;;;;5032857;28;20350;-77
2021/08/07 01:54:05;;;;;;;;;;;13.30;99.90;;;;;;5031961;28;19963;-77
2021/08/07 01:56:35;;;;;;;;;;;13.30;99.90;;;;;;5032883;28;19909;-77
2021/08/07 01:59:06;;;;;;;;;;;13.40;99.90;;;;;;5015186;28;19909;-77
2021/08/07 02:01:32;;;;;;;;;;;13.40;99.90;;;;;;5032685;28;19960;-77
2021/08/07 02:03:58;;;;;;;;;;;13.40;99.90;;;;;;5015063;28;19909;-76
2021/08/07 02:06:24;;;;;;;;;;;13.50;99.90;;;;;;5014557;28;19938;-77
2021/08/07 02:08:50;;;;;;;;;;;13.50;99.90;;;;;;5032926;28;19913;-77
2021/08/07 02:11:16;;;;;;;;;;;13.50;99.90;;;;;;5014911;28;19955;-77
2021/08/07 02:13:42;;;;;;;;;;;13.50;99.90;;;;;;5033136;28;20028;-78
2021/08/07 02:16:09;;;;;;;;;;;13.40;99.90;;;;;;5032124;28;19909;-77
2021/08/07 02:18:34;;;;;;;;;;;13.40;99.90;;;;;;5032485;28;20328;-77
2021/08/07 02:21:00;;;;;;;;;;;13.50;99.90;;;;;;5032480;28;19910;-77
2021/08/07 02:23:26;;;;;;;;;;;13.50;99.90;;;;;;5032515;28;19909;-77
2021/08/07 02:25:56;;;;;;;;;;;13.50;99.90;;;;;;5032382;28;19913;-77
2021/08/07 02:28:22;;;;;;;;;;;13.50;99.90;;;;;;5032027;28;19992;-77
2021/08/07 02:30:48;;;;;;;;;;;13.50;99.90;;;;;;5031977;28;20392;-77
2021/08/07 02:33:15;;;;;;;;;;;13.50;99.90;;;;;;5032719;28;19913;-77
2021/08/07 02:35:40;;;;;;;;;;;13.40;99.90;;;;;;5032329;28;20271;-77
2021/08/07 02:38:06;;;;;;;;;;;13.50;99.90;;;;;;5031821;28;19909;-77
2021/08/07 02:40:32;;;;;;;;;;;13.50;99.90;;;;;;5031454;28;19916;-77
2021/08/07 02:42:57;;;;;;;;;;;13.50;99.90;;;;;;5032115;28;19917;-77
2021/08/07 02:45:23;;;;;;;;;;;13.50;99.90;;;;;;5031615;28;19968;-77
2021/08/07 02:47:49;;;;;;;;;;;13.50;99.90;;;;;;5031485;28;20362;-77
2021/08/07 02:50:15;;;;;;;;;;;13.50;99.90;;;;;;5030512;28;20429;-77
2021/08/07 02:52:40;;;;;;;;;;;13.50;99.90;;;;;;5031941;28;19913;-77
2021/08/07 02:55:06;;;;;;;;;;;13.40;99.90;;;;;;5031886;28;19952;-77
2021/08/07 02:57:32;;;;;;;;;;;13.40;99.90;;;;;;5031342;28;20081;-77
2021/08/07 02:59:58;;;;;;;;;;;13.40;99.90;;;;;;5031648;28;19920;-77
2021/08/07 03:02:23;;;;;;;;;;;13.40;99.90;;;;;;5031735;28;20274;-77
2021/08/07 03:04:49;;;;;;;;;;;13.30;99.90;;;;;;5031757;28;19909;-77
2021/08/07 03:07:14;;;;;;;;;;;13.30;99.90;;;;;;5031186;28;19913;-77
2021/08/07 03:09:40;;;;;;;;;;;13.30;99.90;;;;;;5031500;28;19909;-77
2021/08/07 03:12:05;;;;;;;;;;;13.30;99.90;;;;;;5031665;28;19909;-77
2021/08/07 03:14:31;;;;;;;;;;;13.20;99.90;;;;;;5031361;28;20390;-77
2021/08/07 03:16:56;;;;;;;;;;;13.10;99.90;;;;;;5031017;28;19909;-77
2021/08/07 03:19:22;;;;;;;;;;;13.10;99.90;;;;;;5031473;28;19909;-77
2021/08/07 03:21:47;;;;;;;;;;;13.10;99.90;;;;;;5031536;28;19913;-77
2021/08/07 03:24:13;;;;;;;;;;;13.00;99.90;;;;;;5031517;28;20000;-77
2021/08/07 03:26:38;;;;;;;;;;;13.00;99.90;;;;;;5013149;28;20353;-77
2021/08/07 03:29:05;;;;;;;;;;;13.00;99.90;;;;;;5013508;28;19909;-77
2021/08/07 03:31:31;;;;;;;;;;;13.00;99.90;;;;;;5013993;28;19921;-77
2021/08/07 03:33:56;;;;;;;;;;;13.00;99.90;;;;;;5031277;28;19964;-77
2021/08/07 03:36:22;;;;;;;;;;;13.00;99.90;;;;;;5030760;28;19975;-77
2021/08/07 03:38:47;;;;;;;;;;;12.90;99.90;;;;;;5013533;28;20008;-77
2021/08/07 03:41:13;;;;;;;;;;;12.90;99.90;;;;;;5013457;28;19913;-77
2021/08/07 03:43:38;;;;;;;;;;;12.90;99.90;;;;;;5031183;28;20000;-77
2021/08/07 03:46:04;;;;;;;;;;;12.90;99.90;;;;;;5012809;28;19913;-77
2021/08/07 03:48:30;;;;;;;;;;;12.90;99.90;;;;;;5031051;28;20012;-77
2021/08/07 03:50:55;;;;;;;;;;;12.80;99.90;;;;;;5014399;28;19952;-77
2021/08/07 03:53:21;;;;;;;;;;;12.80;99.90;;;;;;5017434;28;19917;-77
2021/08/07 03:55:46;;;;;;;;;;;12.80;99.90;;;;;;5017402;28;20289;-77
2021/08/07 03:58:11;;;;;;;;;;;12.80;99.90;;;;;;5034881;28;20004;-77
2021/08/07 04:00:37;;;;;;;;;;;12.80;99.90;;;;;;5034943;28;20005;-77
2021/08/07 04:03:03;;;;;;;;;;;12.80;99.90;;;;;;5035274;28;20276;-77
2021/08/07 04:05:28;;;;;;;;;;;12.70;99.90;;;;;;5034822;28;20437;-77
2021/08/07 04:08:01;;;;;;;;;;;12.70;99.90;;;;;;5016858;28;20024;-77
2021/08/07 04:10:26;;;;;;;;;;;12.60;99.90;;;;;;5035178;28;19916;-77
2021/08/07 04:12:52;;;;;;;;;;;12.60;99.90;;;;;;5034694;28;19909;-77
2021/08/07 04:15:17;;;;;;;;;;;12.60;99.90;;;;;;5034705;28;19909;-77
2021/08/07 04:17:43;;;;;;;;;;;12.50;99.90;;;;;;5034210;28;19913;-77
2021/08/07 04:20:09;;;;;;;;;;;12.50;99.90;;;;;;5034539;28;19961;-77
2021/08/07 04:22:35;;;;;;;;;;;12.40;99.90;;;;;;5034677;28;19955;-77
2021/08/07 04:25:00;;;;;;;;;;;12.40;99.90;;;;;;5016779;28;19909;-77
2021/08/07 04:27:26;;;;;;;;;;;12.40;99.90;;;;;;5016237;28;20377;-77
2021/08/07 04:29:51;;;;;;;;;;;12.40;99.90;;;;;;5016505;28;19913;-77
2021/08/07 04:32:17;;;;;;;;;;;12.40;99.90;;;;;;5034559;28;19910;-77
2021/08/07 04:34:44;;;;;;;;;;;12.40;99.90;;;;;;5034351;28;19932;-77
2021/08/07 04:37:09;;;;;;;;;;;12.40;99.90;;;;;;5034059;28;19909;-77
2021/08/07 04:39:35;;;;;;;;;;;12.40;99.90;;;;;;5034388;28;20003;-77
2021/08/07 04:42:00;;;;;;;;;;;12.50;99.90;;;;;;5034170;28;19909;-77
2021/08/07 04:44:26;;;;;;;;;;;12.50;99.90;;;;;;5016541;28;20432;-77
2021/08/07 04:46:51;;;;;;;;;;;12.60;99.90;;;;;;5033494;28;19920;-77
2021/08/07 04:49:17;;;;;;;;;;;12.60;99.90;;;;;;5016472;28;19932;-77
2021/08/07 04:51:42;;;;;;;;;;;12.70;99.90;;;;;;5033994;28;19916;-77
2021/08/07 04:54:10;;;;;;;;;;;12.80;99.90;;;;;;5016282;28;20011;-77
2021/08/07 04:56:36;;;;;;;;;;;12.90;99.90;;;;;;5015921;28;19955;-77
2021/08/07 04:59:02;;;;;;;;;;;12.90;99.90;;;;;;5033996;28;20393;-77
2021/08/07 05:01:27;;;;;;;;;;;13.00;99.90;;;;;;5034109;28;19919;-77
2021/08/07 05:03:53;;;;;;;;;;;13.10;99.90;;;;;;5033222;28;19920;-77
2021/08/07 05:06:18;;;;;;;;;;;13.20;99.90;;;;;;5015641;28;19913;-77
2021/08/07 05:08:44;;;;;;;;;;;13.20;99.90;;;;;;5034278;28;19916;-77
2021/08/07 05:11:09;;;;;;;;;;;13.30;99.90;;;;;;5033581;28;20328;-77
2021/08/07 05:13:36;;;;;;;;;;;13.40;99.90;;;;;;5033645;28;19910;-77
2021/08/07 05:16:01;;;;;;;;;;;13.50;99.90;;;;;;5033082;28;19935;-77
2021/08/07 05:18:27;;;;;;;;;;;13.50;99.90;;;;;;5033433;28;19996;-77
2021/08/07 05:20:52;;;;;;;;;;;13.50;99.90;;;;;;5033607;28;20274;-77
2021/08/07 05:23:18;;;;;;;;;;;13.50;99.90;;;;;;5015811;28;19910;-77
2021/08/07 05:25:43;;;;;;;;;;;13.50;99.90;;;;;;5033354;28;19924;-77
2021/08/07 05:28:09;;;;;;;;;;;13.70;99.90;;;;;;5033134;28;20328;-77
2021/08/07 05:30:34;;;;;;;;;;;13.90;99.90;;;;;;5033277;28;20374;-77
2021/08/07 05:33:00;;;;;;;;;;;14.10;99.90;;;;;;5033587;28;20000;-77
2021/08/07 05:35:25;;;;;;;;;;;14.20;99.90;;;;;;5033441;28;19916;-77
2021/08/07 05:37:51;;;;;;;;;;;14.20;99.90;;;;;;5033067;28;19909;-77
2021/08/07 05:40:16;;;;;;;;;;;14.20;99.90;;;;;;5033329;28;19955;-77
2021/08/07 05:42:42;;;;;;;;;;;14.30;99.90;;;;;;5033363;28;20425;-77
2021/08/07 05:45:08;;;;;;;;;;;14.30;99.90;;;;;;5015376;28;19919;-77
2021/08/07 05:47:33;;;;;;;;;;;14.50;99.90;;;;;;5032488;28;19974;-77
2021/08/07 05:49:59;;;;;;;;;;;14.60;99.90;;;;;;5015650;28;19917;-77
2021/08/07 05:52:26;;;;;;;;;;;14.70;99.90;;;;;;5032578;28;19932;-77
2021/08/07 05:54:52;;;;;;;;;;;14.90;99.90;;;;;;5032700;28;19916;-77
2021/08/07 05:57:17;;;;;;;;;;;15.10;99.90;;;;;;5014810;28;19909;-77
2021/08/07 05:59:43;;;;;;;;;;;15.20;99.90;;;;;;5032990;28;20336;-77
2021/08/07 06:02:09;;;;;;;;;;;15.20;99.90;;;;;;5032981;28;19909;-77
2021/08/07 06:04:34;;;;;;;;;;;15.30;99.90;;;;;;5032955;28;19910;-77
2021/08/07 06:07:00;;;;;;;;;;;15.30;99.90;;;;;;5032444;28;19920;-77
2021/08/07 06:09:25;;;;;;;;;;;15.30;99.90;;;;;;5032859;28;19940;-77
2021/08/07 06:11:51;;;;;;;;;;;15.40;99.90;;;;;;5032629;28;19962;-77
2021/08/07 06:14:17;;;;;;;;;;;15.50;99.90;;;;;;5013901;28;19909;-77
2021/08/07 06:16:42;;;;;;;;;;;15.60;99.90;;;;;;5014547;28;19960;-77
2021/08/07 06:19:08;;;;;;;;;;;15.60;99.90;;;;;;5032616;28;20004;-77
2021/08/07 06:21:33;;;;;;;;;;;15.80;99.90;;;;;;5032868;28;19919;-77
2021/08/07 06:23:59;;;;;;;;;;;16.00;99.90;;;;;;5032342;28;19991;-77
2021/08/07 06:26:28;;;;;;;;;;;16.10;99.90;;;;;;5014398;28;20120;-77
2021/08/07 06:28:53;;;;;;;;;;;16.20;99.90;;;;;;5033333;28;19916;-78
2021/08/07 06:31:19;;;;;;;;;;;16.30;99.90;;;;;;5032302;28;20421;-77
2021/08/07 06:33:46;;;;;;;;;;;16.30;99.90;;;;;;5032065;28;21528;-77
2021/08/07 06:36:12;;;;;;;;;;;16.30;99.90;;;;;;5014505;28;19909;-77
2021/08/07 06:38:38;;;;;;;;;;;16.40;99.90;;;;;;5032507;28;19915;-78
2021/08/07 06:41:04;;;;;;;;;;;16.50;99.90;;;;;;5032235;28;19921;-77
2021/08/07 06:43:29;;;;;;;;;;;16.70;99.90;;;;;;5032646;28;19905;-78
2021/08/07 06:45:55;;;;;;;;;;;16.90;99.90;;;;;;5032445;28;19917;-78
2021/08/07 06:48:20;;;;;;;;;;;17.10;99.90;;;;;;5032272;28;19929;-78
2021/08/07 06:50:46;;;;;;;;;;;17.30;99.90;;;;;;5032843;28;19909;-78
2021/08/07 06:53:11;;;;;;;;;;;17.50;99.90;;;;;;5031812;28;19916;-78
2021/08/07 06:55:37;;;;;;;;;;;17.70;99.90;;;;;;5032263;28;19920;-77
2021/08/07 06:58:02;;;;;;;;;;;17.80;99.90;;;;;;5014589;28;19920;-78
2021/08/07 07:00:28;;;;;;;;;;;18.00;99.90;;;;;;5014884;28;20362;-78
2021/08/07 07:02:53;;;;;;;;;;;18.20;99.90;;;;;;5032829;28;19913;-78
2021/08/07 07:05:19;;;;;;;;;;;18.40;99.90;;;;;;5033206;28;20318;-78
2021/08/07 07:07:45;;;;;;;;;;;18.70;99.90;;;;;;5032821;28;20138;-78
2021/08/07 07:10:11;;;;;;;;;;;19.20;99.90;;;;;;5032492;28;19924;-78
2021/08/07 07:12:37;;;;;;;;;;;19.90;99.90;;;;;;5032144;28;19909;-78
2021/08/07 07:15:04;;;;;;;;;;;20.00;99.90;;;;;;5014426;28;19909;-78
2021/08/07 07:17:29;;;;;;;;;;;20.30;99.90;;;;;;5031750;28;19916;-78
2021/08/07 07:19:55;;;;;;;;;;;20.30;99.90;;;;;;5031856;28;19909;-78
2021/08/07 07:22:21;;;;;;;;;;;20.10;99.90;;;;;;5013495;28;20533;-78
2021/08/07 07:24:46;;;;;;;;;;;19.90;99.90;;;;;;5030917;28;20333;-78
2021/08/07 07:27:12;;;;;;;;;;;19.60;99.90;;;;;;5030771;28;19917;-77
2021/08/07 07:29:39;;;;;;;;;;;19.50;99.90;;;;;;5031396;28;20287;-78
2021/08/07 07:32:05;;;;;;;;;;;19.40;99.90;;;;;;5030038;28;19917;-78
2021/08/07 07:34:31;;;;;;;;;;;19.50;99.90;;;;;;5032130;28;20055;-78
2021/08/07 07:36:57;;;;;;;;;;;19.60;99.90;;;;;;5031760;28;19944;-78
2021/08/07 07:39:22;;;;;;;;;;;19.80;99.90;;;;;;5031873;28;20003;-78
2021/08/07 07:41:48;;;;;;;;;;;20.00;99.90;;;;;;5030186;28;19979;-78
2021/08/07 07:44:13;;;;;;;;;;;20.10;99.90;;;;;;5031945;28;19919;-78
2021/08/07 07:46:39;;;;;;;;;;;20.30;99.90;;;;;;5031277;28;19964;-78
2021/08/07 07:49:04;;;;;;;;;;;20.30;99.90;;;;;;5032233;28;19913;-78
2021/08/07 07:51:30;;;;;;;;;;;20.50;99.90;;;;;;5031786;28;20190;-78
2021/08/07 07:53:55;;;;;;;;;;;21.20;99.90;;;;;;5031853;28;20326;-78
2021/08/07 07:56:21;;;;;;;;;;;22.30;99.90;;;;;;5031752;28;20896;-78
2021/08/07 07:58:46;;;;;;;;;;;23.20;99.90;;;;;;5032028;28;19996;-78
2021/08/07 08:01:12;;;;;;;;;;;23.40;99.90;;;;;;5032380;28;19909;-78
2021/08/07 08:03:37;;;;;;;;;;;23.20;99.90;;;;;;5032910;28;20328;-78
2021/08/07 08:06:03;;;;;;;;;;;23.20;99.90;;;;;;5015586;28;19917;-78
2021/08/07 08:08:28;;;;;;;;;;;23.30;99.90;;;;;;5033637;28;20401;-78
2021/08/07 08:10:54;;;;;;;;;;;23.40;99.90;;;;;;5015301;28;19913;-78
2021/08/07 08:13:20;;;;;;;;;;;23.20;99.90;;;;;;5014724;28;19910;-78
2021/08/07 08:15:46;;;;;;;;;;;22.80;99.90;;;;;;5032451;28;20377;-78
2021/08/07 08:18:11;;;;;;;;;;;22.50;99.90;;;;;;5032321;28;19913;-78
2021/08/07 08:20:37;;;;;;;;;;;22.30;99.90;;;;;;5032841;28;20324;-78
2021/08/07 08:23:03;;;;;;;;;;;22.10;99.90;;;;;;5032035;28;19944;-78
2021/08/07 08:25:29;;;;;;;;;;;22.20;99.90;;;;;;5032806;28;19913;-78
2021/08/07 08:27:54;;;;;;;;;;;22.40;99.90;;;;;;5032744;28;19909;-78
2021/08/07 08:30:20;;;;;;;;;;;22.40;99.90;;;;;;5015451;28;19917;-78
2021/08/07 08:32:45;;;;;;;;;;;22.40;99.90;;;;;;5015417;28;20370;-78
2021/08/07 08:35:11;;;;;;;;;;;22.20;99.90;;;;;;5032571;28;20385;-78
2021/08/07 08:37:37;;;;;;;;;;;22.20;99.90;;;;;;5033073;28;19932;-78
2021/08/07 08:40:03;;;;;;;;;;;22.00;99.90;;;;;;5036817;28;19910;-78
2021/08/07 08:42:28;;;;;;;;;;;22.00;99.90;;;;;;5035764;28;20282;-78
2021/08/07 08:44:54;;;;;;;;;;;21.90;99.90;;;;;;5035692;28;19913;-78
2021/08/07 08:47:20;;;;;;;;;;;21.80;99.90;;;;;;5035483;28;19920;-78
2021/08/07 08:49:46;;;;;;;;;;;21.70;99.90;;;;;;5034420;28;19910;-78
2021/08/07 08:52:13;;;;;;;;;;;21.50;99.90;;;;;;5036196;28;19915;-78
2021/08/07 08:54:40;;;;;;;;;;;21.50;99.90;;;;;;5036150;28;20285;-78
2021/08/07 08:57:06;;;;;;;;;;;21.50;99.90;;;;;;5035494;28;20000;-78
2021/08/07 08:59:31;;;;;;;;;;;21.40;99.90;;;;;;5035412;28;19931;-78
2021/08/07 09:01:57;;;;;;;;;;;21.40;99.90;;;;;;5034138;28;19913;-78
2021/08/07 09:04:23;;;;;;;;;;;21.30;99.90;;;;;;5036750;28;20285;-78
2021/08/07 09:06:49;;;;;;;;;;;21.20;99.90;;;;;;5035155;28;19952;-78
2021/08/07 09:09:14;;;;;;;;;;;21.20;99.90;;;;;;5035998;28;19913;-78
2021/08/07 09:11:47;;;;;;;;;;;21.20;99.90;;;;;;5035216;28;20252;-78
2021/08/07 09:14:16;;;;;;;;;;;21.10;99.90;;;;;;5035515;28;19917;-78
2021/08/07 09:17:08;;;;;;;;;;;21.00;99.90;;;;;;5017415;28;20007;-78
2021/08/07 09:19:40;;;;;;;;;;;20.80;99.90;;;;;;5031116;28;20357;-78
2021/08/07 09:22:08;;;;;;;;;;;20.60;99.90;;;;;;5017560;28;19932;-78
2021/08/07 09:24:34;;;;;;;;;;;20.60;99.90;;;;;;5033414;28;19979;-78
2021/08/07 09:27:01;;;;;;;;;;;20.60;99.90;;;;;;5034936;28;19913;-78
2021/08/07 09:29:35;;;;;;;;;;;20.60;99.90;;;;;;5035084;28;19909;-78
2021/08/07 09:32:01;;;;;;;;;;;20.50;99.90;;;;;;5033553;28;19924;-78
2021/08/07 09:34:27;;;;;;;;;;;20.50;99.90;;;;;;5035504;28;19935;-78
2021/08/07 09:36:56;;;;;;;;;;;20.50;99.90;;;;;;5035069;28;19909;-78
2021/08/07 09:39:34;;;;;;;;;;;20.50;99.90;;;;;;5036402;28;20361;-78
2021/08/07 09:42:01;;;;;;;;;;;20.50;99.90;;;;;;5035032;28;20362;-78
2021/08/07 09:44:27;;;;;;;;;;;20.40;99.90;;;;;;5037780;28;19917;-78
2021/08/07 09:47:12;;;;;;;;;;;20.20;99.90;;;;;;5040433;28;19913;-78
2021/08/07 09:49:41;;;;;;;;;;;20.10;99.90;;;;;;5041629;28;19909;-78
2021/08/07 09:52:07;;;;;;;;;;;20.00;99.90;;;;;;5036106;28;20293;-78
2021/08/07 09:54:36;;;;;;;;;;;19.70;99.90;;;;;;5038797;28;19914;-78
2021/08/07 09:57:02;;;;;;;;;;;19.50;99.90;;;;;;5036024;28;19916;-77
2021/08/07 09:59:33;;;;;;;;;;;19.20;99.90;;;;;;5033851;28;19909;-77
2021/08/07 10:01:59;;;;;;;;;;;19.00;99.90;;;;;;5032971;28;20417;-77
2021/08/07 10:04:24;;;;;;;;;;;18.90;99.90;;;;;;5032992;28;19920;-77
2021/08/07 10:07:05;;;;;;;;;;;18.70;99.90;;;;;;5032557;28;19913;-77
2021/08/07 10:09:32;;;;;;;;;;;18.50;99.90;;;;;;5032965;28;19967;-77
2021/08/07 10:12:08;;;;;;;;;;;18.30;99.90;;;;;;5032639;28;19909;-77
2021/08/07 10:14:35;;;;;;;;;;;18.30;99.90;;;;;;5015149;28;19952;-77
2021/08/07 10:17:02;;;;;;;;;;;18.20;99.90;;;;;;5014565;28;19953;-78
2021/08/07 10:19:28;;;;;;;;;;;18.20;99.90;;;;;;5032529;28;19953;-78
2021/08/07 10:21:53;;;;;;;;;;;18.20;99.90;;;;;;5032290;28;19920;-78
2021/08/07 10:24:19;;;;;;;;;;;18.30;99.90;;;;;;5032509;28;19917;-77
2021/08/07 10:26:45;;;;;;;;;;;18.20;99.90;;;;;;5030738;28;20453;-77
2021/08/07 10:29:12;;;;;;;;;;;18.10;99.90;;;;;;5031319;28;20297;-77
2021/08/07 10:31:38;;;;;;;;;;;18.00;99.90;;;;;;5032300;28;19929;-77
2021/08/07 10:34:05;;;;;;;;;;;18.00;99.90;;;;;;5032287;28;19916;-77
2021/08/07 10:36:31;;;;;;;;;;;18.00;99.90;;;;;;5030675;28;20008;-77
2021/08/07 10:38:57;;;;;;;;;;;17.90;99.90;;;;;;5032308;28;19991;-77
2021/08/07 10:41:27;;;;;;;;;;;17.90;99.90;;;;;;5032196;28;19909;-77
2021/08/07 10:43:53;;;;;;;;;;;17.80;99.90;;;;;;5032317;28;19909;-77
2021/08/07 10:46:19;;;;;;;;;;;17.90;99.90;;;;;;5030388;28;19939;-78
2021/08/07 10:48:45;;;;;;;;;;;17.90;99.90;;;;;;5030701;28;19916;-77
2021/08/07 10:51:23;;;;;;;;;;;17.90;99.90;;;;;;5031969;28;19971;-77
2021/08/07 10:53:49;;;;;;;;;;;17.90;99.90;;;;;;5013691;28;19913;-77
2021/08/07 10:56:34;;;;;;;;;;;17.90;99.90;;;;;;5031450;28;19909;-78
2021/08/07 10:58:59;;;;;;;;;;;17.90;99.90;;;;;;5031892;28;19931;-77
2021/08/07 11:01:25;;;;;;;;;;;17.90;99.90;;;;;;5031118;28;20445;-77
2021/08/07 11:03:51;;;;;;;;;;;17.80;99.90;;;;;;5031937;28;19913;-77
2021/08/07 11:06:17;;;;;;;;;;;17.60;99.90;;;;;;5031361;28;20020;-77
2021/08/07 11:08:43;;;;;;;;;;;17.50;99.90;;;;;;5031897;28;19948;-77
2021/08/07 11:11:38;;;;;;;;;;;17.50;99.90;;;;;;5031555;28;19916;-77
2021/08/07 11:14:24;;;;;;;;;;;17.50;99.90;;;;;;5018629;28;20346;-78
2021/08/07 11:17:05;;;;;;;;;;;17.60;99.90;;;;;;5013491;28;19909;-78
2021/08/07 11:19:49;;;;;;;;;;;17.70;99.90;;;;;;5031759;28;19916;-78
2021/08/07 11:22:15;;;;;;;;;;;17.80;99.90;;;;;;5031751;28;20384;-78
2021/08/07 11:24:43;;;;;;;;;;;17.80;99.90;;;;;;5031332;28;19910;-78
2021/08/07 11:27:09;;;;;;;;;;;17.80;99.90;;;;;;5031161;28;19913;-77
2021/08/07 11:29:54;;;;;;;;;;;17.80;99.90;;;;;;5013858;28;19920;-78
2021/08/07 11:32:20;;;;;;;;;;;17.60;99.90;;;;;;5031175;28;20370;-78
2021/08/07 11:34:46;;;;;;;;;;;17.60;99.90;;;;;;5031278;28;19913;-78
2021/08/07 11:37:13;;;;;;;;;;;17.60;99.90;;;;;;5013303;28;19909;-78
2021/08/07 11:39:57;;;;;;;;;;;17.60;99.90;;;;;;5031290;28;20366;-78
2021/08/07 11:42:33;;;;;;;;;;;17.70;99.90;;;;;;5031366;28;19996;-78
2021/08/07 11:44:59;;;;;;;;;;;17.60;99.90;;;;;;5031731;28;20016;-78
2021/08/07 11:47:24;;;;;;;;;;;17.60;99.90;;;;;;5030874;28;19953;-78
2021/08/07 11:49:50;;;;;;;;;;;17.60;99.90;;;;;;5013520;28;20390;-78
2021/08/07 11:52:15;;;;;;;;;;;17.70;99.90;;;;;;5030821;28;20404;-78
2021/08/07 11:54:41;;;;;;;;;;;17.70;99.90;;;;;;5031010;28;19936;-78
2021/08/07 11:57:22;;;;;;;;;;;17.70;99.90;;;;;;5030960;28;19909;-78
2021/08/07 11:59:47;;;;;;;;;;;17.60;99.90;;;;;;5013376;28;20328;-78
2021/08/07 12:02:16;;;;;;;;;;;17.60;99.90;;;;;;5031241;28;19909;-78
2021/08/07 12:04:41;;;;;;;;;;;17.60;99.90;;;;;;5031188;28;20385;-78
2021/08/07 12:07:14;;;;;;;;;;;17.70;99.90;;;;;;5013314;28;19913;-78
2021/08/07 12:09:59;;;;;;;;;;;17.70;99.90;;;;;;5013546;28;19913;-78
2021/08/07 12:12:24;;;;;;;;;;;17.70;99.90;;;;;;5031609;28;19909;-78
2021/08/07 12:14:50;;;;;;;;;;;17.80;99.90;;;;;;5035241;28;20373;-78
2021/08/07 12:17:15;;;;;;;;;;;17.80;99.90;;;;;;5034853;28;19928;-77
2021/08/07 12:19:41;;;;;;;;;;;17.90;99.90;;;;;;5035101;28;19939;-78
2021/08/07 12:22:06;;;;;;;;;;;17.90;99.90;;;;;;5034944;28;19931;-77
2021/08/07 12:24:32;;;;;;;;;;;17.80;99.90;;;;;;5034582;28;20389;-78
2021/08/07 12:26:58;;;;;;;;;;;17.90;99.90;;;;;;5034609;28;20439;-77
2021/08/07 12:29:25;;;;;;;;;;;17.80;99.90;;;;;;5016941;28;20358;-77
2021/08/07 12:31:53;;;;;;;;;;;17.80;99.90;;;;;;5034193;28;20378;-77
2021/08/07 12:34:20;;;;;;;;;;;17.60;99.90;;;;;;5035013;28;19910;-77
2021/08/07 12:37:03;;;;;;;;;;;17.60;99.90;;;;;;5034336;28;19909;-77
2021/08/07 12:39:36;;;;;;;;;;;17.70;99.90;;;;;;5034686;28;19971;-78
2021/08/07 12:42:01;;;;;;;;;;;17.70;99.90;;;;;;5034788;28;19909;-78
2021/08/07 12:44:27;;;;;;;;;;;17.60;99.90;;;;;;5034364;28;19909;-78
2021/08/07 12:46:56;;;;;;;;;;;17.50;99.90;;;;;;5032965;28;19913;-78
2021/08/07 12:49:33;;;;;;;;;;;17.40;99.90;;;;;;5033450;28;19909;-78
2021/08/07 12:52:03;;;;;;;;;;;17.40;99.90;;;;;;5032761;28;19913;-78
2021/08/07 12:54:29;;;;;;;;;;;17.30;99.90;;;;;;5034445;28;19939;-78
2021/08/07 12:56:54;;;;;;;;;;;17.20;99.90;;;;;;5034142;28;19913;-78
2021/08/07 12:59:20;;;;;;;;;;;17.20;99.90;;;;;;5033163;28;20369;-78
2021/08/07 13:02:05;;;;;;;;;;;17.10;99.90;;;;;;5033201;28;19917;-78
2021/08/07 13:04:39;;;;;;;;;;;17.20;99.90;;;;;;5034326;28;19917;-78
2021/08/07 13:07:05;;;;;;;;;;;17.00;99.90;;;;;;5034202;28;20259;-77
2021/08/07 13:09:32;;;;;;;;;;;17.00;99.90;;;;;;5034114;28;19916;-78
2021/08/07 13:12:10;;;;;;;;;;;16.90;99.90;;;;;;5034221;28;20010;-77
2021/08/07 13:14:37;;;;;;;;;;;16.90;99.90;;;;;;5033745;28;19916;-77
2021/08/07 13:17:03;;;;;;;;;;;16.70;99.90;;;;;;5033736;28;19909;-77
2021/08/07 13:19:38;;;;;;;;;;;16.50;99.90;;;;;;5034227;28;19909;-76
2021/08/07 13:22:17;;;;;;;;;;;16.40;99.90;;;;;;5033537;28;19909;-77
2021/08/07 13:24:49;;;;;;;;;;;16.20;99.90;;;;;;5015729;28;20294;-77
2021/08/07 13:27:14;;;;;;;;;;;16.00;99.90;;;;;;5015412;28;19917;-77
2021/08/07 13:29:41;;;;;;;;;;;15.90;99.90;;;;;;5033815;28;19909;-77
2021/08/07 13:32:20;;;;;;;;;;;15.80;99.90;;;;;;5033572;28;20024;-77
2021/08/07 13:34:45;;;;;;;;;;;15.80;99.90;;;;;;5032426;28;19909;-77
2021/08/07 13:37:11;;;;;;;;;;;15.80;99.90;;;;;;5026276;28;19916;-76
2021/08/07 13:39:40;;;;;;;;;;;15.80;99.90;;;;;;5015665;28;19909;-76
2021/08/07 13:42:06;;;;;;;;;;;15.70;99.90;;;;;;5015739;28;19916;-76
2021/08/07 13:44:31;;;;;;;;;;;15.60;99.90;;;;;;5033496;28;19909;-77
2021/08/07 13:46:57;;;;;;;;;;;15.50;99.90;;;;;;5015490;28;20108;-77
2021/08/07 13:49:22;;;;;;;;;;;15.50;99.90;;;;;;5025627;28;19948;-77
2021/08/07 13:51:47;;;;;;;;;;;15.40;99.90;;;;;;5033251;28;19916;-77
2021/08/07 13:54:13;;;;;;;;;;;15.40;99.90;;;;;;5015360;28;19963;-77
2021/08/07 13:56:39;;;;;;;;;;;15.30;99.90;;;;;;5019943;28;19909;-77
2021/08/07 13:59:04;;;;;;;;;;;15.30;99.90;;;;;;5031941;28;19995;-77
2021/08/07 14:01:30;;;;;;;;;;;15.30;99.90;;;;;;5033046;28;20401;-77
2021/08/07 14:03:55;;;;;;;;;;;15.30;99.90;;;;;;5033265;28;19909;-77
2021/08/07 14:06:21;;;;;;;;;;;15.30;99.90;;;;;;5007901;28;19913;-77
2021/08/07 14:08:47;;;;;;;;;;;15.30;99.90;;;;;;5015115;28;20385;-78
2021/08/07 14:11:13;;;;;;;;;;;15.30;99.90;;;;;;5031983;28;19909;-77
2021/08/07 14:13:38;;;;;;;;;;;15.30;99.90;;;;;;5032765;28;19910;-77
2021/08/07 14:16:04;;;;;;;;;;;15.30;99.90;;;;;;5032672;28;19913;-77